sensor_id;sensor_type;location;lat;lon;timestamp;P1;durP1;ratioP1;P2;durP2;ratioP2
23586;SDS011;11971;51.148;4.104;2022-12-15T00:00:51;50.63;;;33.50;;
23586;SDS011;11971;51.148;4.104;2022-12-15T00:03:35;60.03;;;35.38;;
23586;SDS011;11971;51.148;4.104;2022-12-15T00:06:19;60.65;;;34.28;;
23586;SDS011;11971;51.148;4.104;2022-12-15T00:09:03;55.25;;;35.25;;
23586;SDS011;11971;51.148;4.104;2022-12-15T00:11:47;54.88;;;33.33;;
23586;SDS011;11971;51.148;4.104;2022-12-15T00:14:31;62.45;;;35.55;;
23586;SDS011;11971;51.148;4.104;2022-12-15T00:17:16;55.97;;;32.75;;
23586;SDS011;11971;51.148;4.104;2022-12-15T00:20:00;54.40;;;33.83;;
23586;SDS011;11971;51.148;4.104;2022-12-15T00:22:44;56.10;;;34.15;;
23586;SDS011;11971;51.148;4.104;2022-12-15T00:25:28;54.22;;;34.03;;
23586;SDS011;11971;51.148;4.104;2022-12-15T00:28:12;55.75;;;34.78;;
23586;SDS011;11971;51.148;4.104;2022-12-15T00:30:56;54.45;;;34.17;;
23586;SDS011;11971;51.148;4.104;2022-12-15T00:33:42;52.17;;;33.03;;
23586;SDS011;11971;51.148;4.104;2022-12-15T00:36:26;55.42;;;34.22;;
23586;SDS011;11971;51.148;4.104;2022-12-15T00:39:10;54.85;;;34.08;;
23586;SDS011;11971;51.148;4.104;2022-12-15T00:41:37;55.90;;;34.08;;
23586;SDS011;11971;51.148;4.104;2022-12-15T00:44:03;63.25;;;35.42;;
23586;SDS011;11971;51.148;4.104;2022-12-15T00:46:30;56.45;;;34.60;;
23586;SDS011;11971;51.148;4.104;2022-12-15T00:49:15;58.60;;;34.38;;
23586;SDS011;11971;51.148;4.104;2022-12-15T00:51:56;58.70;;;35.17;;
23586;SDS011;11971;51.148;4.104;2022-12-15T00:54:40;56.85;;;34.08;;
23586;SDS011;11971;51.148;4.104;2022-12-15T00:57:23;61.13;;;35.40;;
23586;SDS011;11971;51.148;4.104;2022-12-15T01:00:08;56.72;;;34.72;;
23586;SDS011;11971;51.148;4.104;2022-12-15T01:02:53;59.00;;;33.97;;
23586;SDS011;11971;51.148;4.104;2022-12-15T01:05:38;59.55;;;34.55;;
23586;SDS011;11971;51.148;4.104;2022-12-15T01:08:22;62.53;;;35.33;;
23586;SDS011;11971;51.148;4.104;2022-12-15T01:11:06;59.63;;;34.53;;
23586;SDS011;11971;51.148;4.104;2022-12-15T01:13:50;59.17;;;33.97;;
23586;SDS011;11971;51.148;4.104;2022-12-15T01:16:34;64.80;;;34.88;;
23586;SDS011;11971;51.148;4.104;2022-12-15T01:19:18;56.50;;;34.60;;
23586;SDS011;11971;51.148;4.104;2022-12-15T01:22:03;53.95;;;33.95;;
23586;SDS011;11971;51.148;4.104;2022-12-15T01:24:31;52.88;;;34.10;;
23586;SDS011;11971;51.148;4.104;2022-12-15T01:26:57;53.30;;;33.78;;
23586;SDS011;11971;51.148;4.104;2022-12-15T01:29:24;58.65;;;35.00;;
23586;SDS011;11971;51.148;4.104;2022-12-15T01:31:51;59.28;;;34.28;;
23586;SDS011;11971;51.148;4.104;2022-12-15T01:34:17;56.95;;;33.75;;
23586;SDS011;11971;51.148;4.104;2022-12-15T01:36:46;57.15;;;33.65;;
23586;SDS011;11971;51.148;4.104;2022-12-15T01:39:14;57.20;;;34.17;;
23586;SDS011;11971;51.148;4.104;2022-12-15T01:41:41;55.88;;;33.72;;
23586;SDS011;11971;51.148;4.104;2022-12-15T01:44:13;56.22;;;34.30;;
23586;SDS011;11971;51.148;4.104;2022-12-15T01:46:41;66.13;;;34.50;;
23586;SDS011;11971;51.148;4.104;2022-12-15T01:49:10;61.33;;;33.67;;
23586;SDS011;11971;51.148;4.104;2022-12-15T01:51:40;68.30;;;35.38;;
23586;SDS011;11971;51.148;4.104;2022-12-15T01:54:09;56.22;;;33.22;;
23586;SDS011;11971;51.148;4.104;2022-12-15T01:56:41;55.78;;;34.03;;
23586;SDS011;11971;51.148;4.104;2022-12-15T01:59:10;64.95;;;35.83;;
23586;SDS011;11971;51.148;4.104;2022-12-15T02:01:40;54.75;;;34.72;;
23586;SDS011;11971;51.148;4.104;2022-12-15T02:04:06;63.17;;;36.53;;
23586;SDS011;11971;51.148;4.104;2022-12-15T02:06:33;62.90;;;37.17;;
23586;SDS011;11971;51.148;4.104;2022-12-15T02:09:00;61.08;;;36.42;;
23586;SDS011;11971;51.148;4.104;2022-12-15T02:17:21;59.78;;;35.90;;
23586;SDS011;11971;51.148;4.104;2022-12-15T02:25:34;61.95;;;37.45;;
23586;SDS011;11971;51.148;4.104;2022-12-15T02:28:10;60.58;;;36.40;;
23586;SDS011;11971;51.148;4.104;2022-12-15T02:30:54;65.30;;;36.95;;
23586;SDS011;11971;51.148;4.104;2022-12-15T02:33:39;61.65;;;35.92;;
23586;SDS011;11971;51.148;4.104;2022-12-15T02:36:14;66.03;;;38.03;;
23586;SDS011;11971;51.148;4.104;2022-12-15T02:38:44;69.35;;;37.22;;
23586;SDS011;11971;51.148;4.104;2022-12-15T02:43:57;72.28;;;38.42;;
23586;SDS011;11971;51.148;4.104;2022-12-15T02:46:27;62.65;;;37.00;;
23586;SDS011;11971;51.148;4.104;2022-12-15T02:48:58;72.80;;;35.95;;
23586;SDS011;11971;51.148;4.104;2022-12-15T02:51:36;70.28;;;37.72;;
23586;SDS011;11971;51.148;4.104;2022-12-15T02:57:23;69.75;;;35.70;;
23586;SDS011;11971;51.148;4.104;2022-12-15T02:59:53;62.85;;;35.13;;
23586;SDS011;11971;51.148;4.104;2022-12-15T03:02:25;63.45;;;36.92;;
23586;SDS011;11971;51.148;4.104;2022-12-15T03:04:54;62.45;;;36.35;;
23586;SDS011;11971;51.148;4.104;2022-12-15T03:07:21;68.70;;;38.00;;
23586;SDS011;11971;51.148;4.104;2022-12-15T03:09:48;59.35;;;35.80;;
23586;SDS011;11971;51.148;4.104;2022-12-15T03:12:15;61.33;;;37.03;;
23586;SDS011;11971;51.148;4.104;2022-12-15T03:14:41;63.45;;;36.85;;
23586;SDS011;11971;51.148;4.104;2022-12-15T03:17:08;60.38;;;35.97;;
23586;SDS011;11971;51.148;4.104;2022-12-15T03:19:36;61.50;;;36.60;;
23586;SDS011;11971;51.148;4.104;2022-12-15T03:22:03;66.90;;;36.80;;
23586;SDS011;11971;51.148;4.104;2022-12-15T03:24:29;60.58;;;35.67;;
23586;SDS011;11971;51.148;4.104;2022-12-15T03:26:56;62.30;;;36.10;;
23586;SDS011;11971;51.148;4.104;2022-12-15T03:29:23;57.47;;;34.83;;
23586;SDS011;11971;51.148;4.104;2022-12-15T03:31:49;57.50;;;34.58;;
23586;SDS011;11971;51.148;4.104;2022-12-15T03:34:16;63.33;;;36.42;;
23586;SDS011;11971;51.148;4.104;2022-12-15T03:36:44;59.88;;;36.80;;
23586;SDS011;11971;51.148;4.104;2022-12-15T03:39:11;57.75;;;35.45;;
23586;SDS011;11971;51.148;4.104;2022-12-15T03:41:37;62.25;;;36.70;;
23586;SDS011;11971;51.148;4.104;2022-12-15T03:44:05;68.88;;;36.90;;
23586;SDS011;11971;51.148;4.104;2022-12-15T03:46:32;64.22;;;36.58;;
23586;SDS011;11971;51.148;4.104;2022-12-15T03:48:59;65.03;;;36.90;;
23586;SDS011;11971;51.148;4.104;2022-12-15T03:51:25;60.13;;;35.05;;
23586;SDS011;11971;51.148;4.104;2022-12-15T03:53:53;63.40;;;37.15;;
23586;SDS011;11971;51.148;4.104;2022-12-15T03:56:20;60.60;;;36.63;;
23586;SDS011;11971;51.148;4.104;2022-12-15T03:58:46;55.33;;;34.30;;
23586;SDS011;11971;51.148;4.104;2022-12-15T04:01:18;61.53;;;36.00;;
23586;SDS011;11971;51.148;4.104;2022-12-15T04:03:54;62.13;;;35.67;;
23586;SDS011;11971;51.148;4.104;2022-12-15T04:06:21;55.53;;;35.17;;
23586;SDS011;11971;51.148;4.104;2022-12-15T04:08:48;61.40;;;35.65;;
23586;SDS011;11971;51.148;4.104;2022-12-15T04:11:16;74.93;;;38.58;;
23586;SDS011;11971;51.148;4.104;2022-12-15T04:13:43;58.50;;;35.50;;
23586;SDS011;11971;51.148;4.104;2022-12-15T04:16:10;56.03;;;34.05;;
23586;SDS011;11971;51.148;4.104;2022-12-15T04:18:37;57.45;;;35.33;;
23586;SDS011;11971;51.148;4.104;2022-12-15T04:21:04;60.42;;;35.47;;
23586;SDS011;11971;51.148;4.104;2022-12-15T04:23:30;58.60;;;34.97;;
23586;SDS011;11971;51.148;4.104;2022-12-15T04:25:56;60.58;;;35.53;;
23586;SDS011;11971;51.148;4.104;2022-12-15T04:28:41;57.20;;;34.72;;
23586;SDS011;11971;51.148;4.104;2022-12-15T04:31:26;55.80;;;34.58;;
23586;SDS011;11971;51.148;4.104;2022-12-15T04:34:11;53.10;;;34.17;;
23586;SDS011;11971;51.148;4.104;2022-12-15T04:36:56;54.28;;;33.58;;
23586;SDS011;11971;51.148;4.104;2022-12-15T04:39:41;66.57;;;34.47;;
23586;SDS011;11971;51.148;4.104;2022-12-15T04:42:26;55.55;;;34.17;;
23586;SDS011;11971;51.148;4.104;2022-12-15T04:45:12;56.75;;;34.17;;
23586;SDS011;11971;51.148;4.104;2022-12-15T04:47:57;55.83;;;35.35;;
23586;SDS011;11971;51.148;4.104;2022-12-15T04:50:41;61.92;;;35.45;;
23586;SDS011;11971;51.148;4.104;2022-12-15T04:53:25;66.90;;;35.40;;
23586;SDS011;11971;51.148;4.104;2022-12-15T04:56:10;64.57;;;34.88;;
23586;SDS011;11971;51.148;4.104;2022-12-15T04:58:55;57.95;;;35.08;;
23586;SDS011;11971;51.148;4.104;2022-12-15T05:01:41;56.97;;;35.00;;
23586;SDS011;11971;51.148;4.104;2022-12-15T05:04:25;68.93;;;35.28;;
23586;SDS011;11971;51.148;4.104;2022-12-15T05:07:08;56.08;;;34.42;;
23586;SDS011;11971;51.148;4.104;2022-12-15T05:09:52;55.72;;;34.72;;
23586;SDS011;11971;51.148;4.104;2022-12-15T05:12:36;67.28;;;35.65;;
23586;SDS011;11971;51.148;4.104;2022-12-15T05:15:20;59.63;;;34.15;;
23586;SDS011;11971;51.148;4.104;2022-12-15T05:18:05;55.65;;;34.90;;
23586;SDS011;11971;51.148;4.104;2022-12-15T05:20:50;54.20;;;33.63;;
23586;SDS011;11971;51.148;4.104;2022-12-15T05:23:33;58.47;;;34.28;;
23586;SDS011;11971;51.148;4.104;2022-12-15T05:26:17;59.25;;;35.40;;
23586;SDS011;11971;51.148;4.104;2022-12-15T05:29:01;53.95;;;34.15;;
23586;SDS011;11971;51.148;4.104;2022-12-15T05:31:45;55.47;;;33.35;;
23586;SDS011;11971;51.148;4.104;2022-12-15T05:34:14;56.13;;;33.63;;
23586;SDS011;11971;51.148;4.104;2022-12-15T05:36:41;61.40;;;35.40;;
23586;SDS011;11971;51.148;4.104;2022-12-15T05:39:08;56.42;;;34.30;;
23586;SDS011;11971;51.148;4.104;2022-12-15T05:41:34;57.95;;;36.13;;
23586;SDS011;11971;51.148;4.104;2022-12-15T05:44:01;58.67;;;35.38;;
23586;SDS011;11971;51.148;4.104;2022-12-15T05:46:28;57.88;;;35.50;;
23586;SDS011;11971;51.148;4.104;2022-12-15T05:48:54;55.70;;;34.60;;
23586;SDS011;11971;51.148;4.104;2022-12-15T05:51:22;58.15;;;35.42;;
23586;SDS011;11971;51.148;4.104;2022-12-15T05:53:49;69.32;;;36.30;;
23586;SDS011;11971;51.148;4.104;2022-12-15T05:56:16;66.88;;;35.47;;
23586;SDS011;11971;51.148;4.104;2022-12-15T05:58:42;54.90;;;35.33;;
23586;SDS011;11971;51.148;4.104;2022-12-15T06:01:09;61.42;;;35.65;;
23586;SDS011;11971;51.148;4.104;2022-12-15T06:03:37;58.83;;;35.17;;
23586;SDS011;11971;51.148;4.104;2022-12-15T06:06:04;61.20;;;35.83;;
23586;SDS011;11971;51.148;4.104;2022-12-15T06:08:34;63.45;;;36.13;;
23586;SDS011;11971;51.148;4.104;2022-12-15T06:11:01;53.35;;;33.65;;
23586;SDS011;11971;51.148;4.104;2022-12-15T06:13:30;69.28;;;37.50;;
23586;SDS011;11971;51.148;4.104;2022-12-15T06:15:59;62.05;;;35.47;;
23586;SDS011;11971;51.148;4.104;2022-12-15T06:18:28;60.25;;;34.95;;
23586;SDS011;11971;51.148;4.104;2022-12-15T06:20:56;61.08;;;36.80;;
23586;SDS011;11971;51.148;4.104;2022-12-15T06:23:23;61.55;;;34.92;;
23586;SDS011;11971;51.148;4.104;2022-12-15T06:25:54;61.15;;;36.15;;
23586;SDS011;11971;51.148;4.104;2022-12-15T06:30:48;50.22;;;33.22;;
23586;SDS011;11971;51.148;4.104;2022-12-15T06:33:17;63.30;;;35.20;;
23586;SDS011;11971;51.148;4.104;2022-12-15T06:35:44;62.47;;;36.15;;
23586;SDS011;11971;51.148;4.104;2022-12-15T06:38:10;59.08;;;35.33;;
23586;SDS011;11971;51.148;4.104;2022-12-15T06:40:37;66.13;;;35.35;;
23586;SDS011;11971;51.148;4.104;2022-12-15T06:43:06;54.22;;;33.88;;
23586;SDS011;11971;51.148;4.104;2022-12-15T06:45:32;54.22;;;34.67;;
23586;SDS011;11971;51.148;4.104;2022-12-15T06:47:59;56.53;;;34.78;;
23586;SDS011;11971;51.148;4.104;2022-12-15T06:50:25;59.47;;;33.92;;
23586;SDS011;11971;51.148;4.104;2022-12-15T06:52:52;61.53;;;35.78;;
23586;SDS011;11971;51.148;4.104;2022-12-15T06:55:19;58.05;;;34.92;;
23586;SDS011;11971;51.148;4.104;2022-12-15T06:57:46;62.65;;;35.20;;
23586;SDS011;11971;51.148;4.104;2022-12-15T07:00:14;56.38;;;35.17;;
23586;SDS011;11971;51.148;4.104;2022-12-15T07:02:41;62.75;;;36.05;;
23586;SDS011;11971;51.148;4.104;2022-12-15T07:05:08;58.58;;;35.38;;
23586;SDS011;11971;51.148;4.104;2022-12-15T07:07:34;63.20;;;37.00;;
23586;SDS011;11971;51.148;4.104;2022-12-15T07:10:01;68.05;;;38.92;;
23586;SDS011;11971;51.148;4.104;2022-12-15T07:12:28;64.82;;;38.78;;
23586;SDS011;11971;51.148;4.104;2022-12-15T07:14:54;67.82;;;39.42;;
23586;SDS011;11971;51.148;4.104;2022-12-15T07:17:22;65.07;;;36.58;;
23586;SDS011;11971;51.148;4.104;2022-12-15T07:19:49;64.95;;;37.42;;
23586;SDS011;11971;51.148;4.104;2022-12-15T07:22:16;59.58;;;36.17;;
23586;SDS011;11971;51.148;4.104;2022-12-15T07:24:42;60.08;;;37.10;;
23586;SDS011;11971;51.148;4.104;2022-12-15T07:27:10;60.95;;;36.00;;
23586;SDS011;11971;51.148;4.104;2022-12-15T07:29:36;62.00;;;36.63;;
23586;SDS011;11971;51.148;4.104;2022-12-15T07:32:03;63.42;;;37.13;;
23586;SDS011;11971;51.148;4.104;2022-12-15T07:34:32;61.38;;;35.92;;
23586;SDS011;11971;51.148;4.104;2022-12-15T07:36:58;66.55;;;35.90;;
23586;SDS011;11971;51.148;4.104;2022-12-15T07:39:25;64.78;;;37.40;;
23586;SDS011;11971;51.148;4.104;2022-12-15T07:41:52;63.17;;;37.75;;
23586;SDS011;11971;51.148;4.104;2022-12-15T07:44:19;62.45;;;36.88;;
23586;SDS011;11971;51.148;4.104;2022-12-15T07:46:45;62.53;;;37.15;;
23586;SDS011;11971;51.148;4.104;2022-12-15T07:49:13;63.90;;;36.50;;
23586;SDS011;11971;51.148;4.104;2022-12-15T07:51:41;60.03;;;35.88;;
23586;SDS011;11971;51.148;4.104;2022-12-15T07:54:09;62.15;;;37.03;;
23586;SDS011;11971;51.148;4.104;2022-12-15T07:56:36;64.82;;;36.72;;
23586;SDS011;11971;51.148;4.104;2022-12-15T07:59:02;74.55;;;37.08;;
23586;SDS011;11971;51.148;4.104;2022-12-15T08:01:29;64.25;;;35.83;;
23586;SDS011;11971;51.148;4.104;2022-12-15T08:03:56;68.57;;;38.13;;
23586;SDS011;11971;51.148;4.104;2022-12-15T08:06:23;64.88;;;37.10;;
23586;SDS011;11971;51.148;4.104;2022-12-15T08:08:51;66.03;;;37.40;;
23586;SDS011;11971;51.148;4.104;2022-12-15T08:11:18;65.68;;;39.08;;
23586;SDS011;11971;51.148;4.104;2022-12-15T08:13:46;64.90;;;36.90;;
23586;SDS011;11971;51.148;4.104;2022-12-15T08:16:12;57.83;;;35.55;;
23586;SDS011;11971;51.148;4.104;2022-12-15T08:18:39;67.13;;;38.47;;
23586;SDS011;11971;51.148;4.104;2022-12-15T08:21:06;72.40;;;36.92;;
23586;SDS011;11971;51.148;4.104;2022-12-15T08:23:34;60.50;;;35.83;;
23586;SDS011;11971;51.148;4.104;2022-12-15T08:26:03;55.65;;;34.72;;
23586;SDS011;11971;51.148;4.104;2022-12-15T08:28:32;64.90;;;37.10;;
23586;SDS011;11971;51.148;4.104;2022-12-15T08:31:01;69.95;;;37.50;;
23586;SDS011;11971;51.148;4.104;2022-12-15T08:33:28;55.17;;;35.35;;
23586;SDS011;11971;51.148;4.104;2022-12-15T08:35:56;61.70;;;36.53;;
23586;SDS011;11971;51.148;4.104;2022-12-15T08:38:23;66.13;;;36.72;;
23586;SDS011;11971;51.148;4.104;2022-12-15T08:40:50;58.30;;;36.58;;
23586;SDS011;11971;51.148;4.104;2022-12-15T08:43:18;58.00;;;35.75;;
23586;SDS011;11971;51.148;4.104;2022-12-15T08:45:47;61.17;;;36.25;;
23586;SDS011;11971;51.148;4.104;2022-12-15T08:48:15;66.05;;;38.72;;
23586;SDS011;11971;51.148;4.104;2022-12-15T08:50:42;63.85;;;37.33;;
23586;SDS011;11971;51.148;4.104;2022-12-15T08:53:09;64.38;;;37.42;;
23586;SDS011;11971;51.148;4.104;2022-12-15T08:55:36;56.83;;;35.30;;
23586;SDS011;11971;51.148;4.104;2022-12-15T08:58:03;62.17;;;36.17;;
23586;SDS011;11971;51.148;4.104;2022-12-15T09:00:31;69.40;;;38.00;;
23586;SDS011;11971;51.148;4.104;2022-12-15T09:02:58;63.28;;;35.55;;
23586;SDS011;11971;51.148;4.104;2022-12-15T09:05:24;67.78;;;36.90;;
23586;SDS011;11971;51.148;4.104;2022-12-15T09:07:52;64.85;;;37.63;;
23586;SDS011;11971;51.148;4.104;2022-12-15T09:10:20;66.32;;;37.90;;
23586;SDS011;11971;51.148;4.104;2022-12-15T09:12:47;72.40;;;38.20;;
23586;SDS011;11971;51.148;4.104;2022-12-15T09:15:13;64.20;;;37.90;;
23586;SDS011;11971;51.148;4.104;2022-12-15T09:17:43;68.47;;;39.15;;
23586;SDS011;11971;51.148;4.104;2022-12-15T09:20:10;62.40;;;36.92;;
23586;SDS011;11971;51.148;4.104;2022-12-15T09:22:38;72.90;;;39.60;;
23586;SDS011;11971;51.148;4.104;2022-12-15T09:25:05;67.18;;;38.47;;
23586;SDS011;11971;51.148;4.104;2022-12-15T09:27:32;71.63;;;40.10;;
23586;SDS011;11971;51.148;4.104;2022-12-15T09:29:59;68.05;;;38.30;;
23586;SDS011;11971;51.148;4.104;2022-12-15T09:32:26;67.15;;;39.47;;
23586;SDS011;11971;51.148;4.104;2022-12-15T09:34:54;72.55;;;41.15;;
23586;SDS011;11971;51.148;4.104;2022-12-15T09:37:21;75.10;;;41.55;;
23586;SDS011;11971;51.148;4.104;2022-12-15T09:39:47;73.60;;;39.72;;
23586;SDS011;11971;51.148;4.104;2022-12-15T09:42:16;74.25;;;39.15;;
23586;SDS011;11971;51.148;4.104;2022-12-15T09:44:48;74.22;;;39.85;;
23586;SDS011;11971;51.148;4.104;2022-12-15T09:47:17;77.28;;;40.13;;
23586;SDS011;11971;51.148;4.104;2022-12-15T09:49:50;73.30;;;39.58;;
23586;SDS011;11971;51.148;4.104;2022-12-15T09:52:21;72.82;;;39.03;;
23586;SDS011;11971;51.148;4.104;2022-12-15T09:54:50;73.05;;;40.35;;
23586;SDS011;11971;51.148;4.104;2022-12-15T09:57:30;79.50;;;41.70;;
23586;SDS011;11971;51.148;4.104;2022-12-15T10:00:03;72.35;;;39.50;;
23586;SDS011;11971;51.148;4.104;2022-12-15T10:02:53;81.70;;;40.65;;
23586;SDS011;11971;51.148;4.104;2022-12-15T10:05:35;78.75;;;41.85;;
23586;SDS011;11971;51.148;4.104;2022-12-15T10:08:09;85.45;;;41.70;;
23586;SDS011;11971;51.148;4.104;2022-12-15T10:10:38;86.55;;;44.70;;
23586;SDS011;11971;51.148;4.104;2022-12-15T10:13:08;81.10;;;43.72;;
23586;SDS011;11971;51.148;4.104;2022-12-15T10:15:40;82.18;;;41.85;;
23586;SDS011;11971;51.148;4.104;2022-12-15T10:18:14;78.10;;;42.45;;
23586;SDS011;11971;51.148;4.104;2022-12-15T10:20:46;79.28;;;42.35;;
23586;SDS011;11971;51.148;4.104;2022-12-15T10:23:14;82.03;;;44.30;;
23586;SDS011;11971;51.148;4.104;2022-12-15T10:25:43;89.63;;;45.58;;
23586;SDS011;11971;51.148;4.104;2022-12-15T10:31:18;79.88;;;43.70;;
23586;SDS011;11971;51.148;4.104;2022-12-15T10:33:53;85.93;;;44.13;;
23586;SDS011;11971;51.148;4.104;2022-12-15T10:36:23;90.95;;;45.15;;
23586;SDS011;11971;51.148;4.104;2022-12-15T10:38:50;94.13;;;45.58;;
23586;SDS011;11971;51.148;4.104;2022-12-15T10:41:18;85.15;;;43.60;;
23586;SDS011;11971;51.148;4.104;2022-12-15T10:43:46;93.78;;;46.25;;
23586;SDS011;11971;51.148;4.104;2022-12-15T10:46:14;86.75;;;45.35;;
23586;SDS011;11971;51.148;4.104;2022-12-15T10:48:43;80.78;;;43.15;;
23586;SDS011;11971;51.148;4.104;2022-12-15T10:51:14;88.32;;;44.05;;
23586;SDS011;11971;51.148;4.104;2022-12-15T10:53:45;82.93;;;43.67;;
23586;SDS011;11971;51.148;4.104;2022-12-15T10:56:16;81.50;;;42.25;;
23586;SDS011;11971;51.148;4.104;2022-12-15T10:58:46;80.35;;;43.72;;
23586;SDS011;11971;51.148;4.104;2022-12-15T11:01:16;90.53;;;43.17;;
23586;SDS011;11971;51.148;4.104;2022-12-15T11:03:44;88.32;;;42.90;;
23586;SDS011;11971;51.148;4.104;2022-12-15T11:06:15;86.35;;;44.33;;
23586;SDS011;11971;51.148;4.104;2022-12-15T11:11:24;83.75;;;42.97;;
23586;SDS011;11971;51.148;4.104;2022-12-15T11:14:12;89.20;;;44.33;;
23586;SDS011;11971;51.148;4.104;2022-12-15T11:16:45;84.65;;;43.97;;
23586;SDS011;11971;51.148;4.104;2022-12-15T11:22:04;86.28;;;43.50;;
23586;SDS011;11971;51.148;4.104;2022-12-15T11:24:37;95.95;;;46.50;;
23586;SDS011;11971;51.148;4.104;2022-12-15T11:27:12;78.03;;;42.72;;
23586;SDS011;11971;51.148;4.104;2022-12-15T11:29:45;87.53;;;43.72;;
23586;SDS011;11971;51.148;4.104;2022-12-15T11:32:24;90.68;;;44.90;;
23586;SDS011;11971;51.148;4.104;2022-12-15T11:34:52;89.00;;;44.72;;
23586;SDS011;11971;51.148;4.104;2022-12-15T11:37:31;88.78;;;43.63;;
23586;SDS011;11971;51.148;4.104;2022-12-15T11:40:22;87.13;;;42.97;;
23586;SDS011;11971;51.148;4.104;2022-12-15T11:43:00;84.00;;;43.88;;
23586;SDS011;11971;51.148;4.104;2022-12-15T11:45:57;87.07;;;43.55;;
23586;SDS011;11971;51.148;4.104;2022-12-15T11:48:31;87.53;;;44.33;;
23586;SDS011;11971;51.148;4.104;2022-12-15T11:51:01;94.30;;;47.33;;
23586;SDS011;11971;51.148;4.104;2022-12-15T11:53:49;90.97;;;43.97;;
23586;SDS011;11971;51.148;4.104;2022-12-15T11:56:28;92.28;;;47.17;;
23586;SDS011;11971;51.148;4.104;2022-12-15T11:59:03;89.78;;;45.70;;
23586;SDS011;11971;51.148;4.104;2022-12-15T12:02:08;82.88;;;44.40;;
23586;SDS011;11971;51.148;4.104;2022-12-15T12:04:42;94.82;;;46.47;;
23586;SDS011;11971;51.148;4.104;2022-12-15T12:07:21;85.15;;;44.83;;
23586;SDS011;11971;51.148;4.104;2022-12-15T12:09:59;94.60;;;44.67;;
23586;SDS011;11971;51.148;4.104;2022-12-15T12:12:31;94.40;;;45.00;;
23586;SDS011;11971;51.148;4.104;2022-12-15T12:15:04;94.72;;;46.30;;
23586;SDS011;11971;51.148;4.104;2022-12-15T12:17:41;91.78;;;46.08;;
23586;SDS011;11971;51.148;4.104;2022-12-15T12:20:12;93.35;;;46.10;;
23586;SDS011;11971;51.148;4.104;2022-12-15T12:22:43;88.90;;;45.88;;
23586;SDS011;11971;51.148;4.104;2022-12-15T12:25:14;85.38;;;44.20;;
23586;SDS011;11971;51.148;4.104;2022-12-15T12:27:45;80.13;;;42.13;;
23586;SDS011;11971;51.148;4.104;2022-12-15T12:30:17;83.90;;;43.75;;
23586;SDS011;11971;51.148;4.104;2022-12-15T12:32:47;90.15;;;45.50;;
23586;SDS011;11971;51.148;4.104;2022-12-15T12:35:20;84.70;;;44.80;;
23586;SDS011;11971;51.148;4.104;2022-12-15T12:37:50;86.35;;;46.10;;
23586;SDS011;11971;51.148;4.104;2022-12-15T12:40:18;93.20;;;47.10;;
23586;SDS011;11971;51.148;4.104;2022-12-15T12:42:50;89.55;;;45.97;;
23586;SDS011;11971;51.148;4.104;2022-12-15T12:45:20;87.82;;;46.05;;
23586;SDS011;11971;51.148;4.104;2022-12-15T12:47:50;91.80;;;44.38;;
23586;SDS011;11971;51.148;4.104;2022-12-15T12:50:20;89.93;;;45.47;;
23586;SDS011;11971;51.148;4.104;2022-12-15T12:52:49;86.55;;;45.00;;
23586;SDS011;11971;51.148;4.104;2022-12-15T12:55:22;90.95;;;44.92;;
23586;SDS011;11971;51.148;4.104;2022-12-15T12:57:52;87.05;;;45.47;;
23586;SDS011;11971;51.148;4.104;2022-12-15T13:00:20;85.53;;;45.17;;
23586;SDS011;11971;51.148;4.104;2022-12-15T13:02:55;92.20;;;45.13;;
23586;SDS011;11971;51.148;4.104;2022-12-15T13:05:38;95.55;;;45.25;;
23586;SDS011;11971;51.148;4.104;2022-12-15T13:08:26;94.80;;;47.22;;
23586;SDS011;11971;51.148;4.104;2022-12-15T13:14:22;100.00;;;47.35;;
23586;SDS011;11971;51.148;4.104;2022-12-15T13:16:54;90.32;;;46.38;;
23586;SDS011;11971;51.148;4.104;2022-12-15T13:22:22;86.40;;;45.15;;
23586;SDS011;11971;51.148;4.104;2022-12-15T13:24:49;85.30;;;44.53;;
23586;SDS011;11971;51.148;4.104;2022-12-15T13:27:16;90.93;;;44.35;;
23586;SDS011;11971;51.148;4.104;2022-12-15T13:29:55;93.10;;;46.20;;
23586;SDS011;11971;51.148;4.104;2022-12-15T13:32:32;86.97;;;43.70;;
23586;SDS011;11971;51.148;4.104;2022-12-15T13:35:02;101.70;;;49.10;;
23586;SDS011;11971;51.148;4.104;2022-12-15T13:37:46;88.25;;;46.08;;
23586;SDS011;11971;51.148;4.104;2022-12-15T13:40:23;87.55;;;46.28;;
23586;SDS011;11971;51.148;4.104;2022-12-15T13:42:58;83.05;;;43.78;;
23586;SDS011;11971;51.148;4.104;2022-12-15T13:48:17;89.63;;;44.35;;
23586;SDS011;11971;51.148;4.104;2022-12-15T13:50:48;86.20;;;42.97;;
23586;SDS011;11971;51.148;4.104;2022-12-15T13:53:20;85.45;;;43.35;;
23586;SDS011;11971;51.148;4.104;2022-12-15T13:55:51;88.75;;;45.38;;
23586;SDS011;11971;51.148;4.104;2022-12-15T13:58:31;90.63;;;45.80;;
23586;SDS011;11971;51.148;4.104;2022-12-15T14:01:00;92.43;;;46.38;;
23586;SDS011;11971;51.148;4.104;2022-12-15T14:03:27;97.88;;;49.08;;
23586;SDS011;11971;51.148;4.104;2022-12-15T14:05:55;93.53;;;46.53;;
23586;SDS011;11971;51.148;4.104;2022-12-15T14:08:23;93.47;;;47.83;;
23586;SDS011;11971;51.148;4.104;2022-12-15T14:10:53;88.82;;;45.78;;
23586;SDS011;11971;51.148;4.104;2022-12-15T14:13:21;88.60;;;45.60;;
23586;SDS011;11971;51.148;4.104;2022-12-15T14:15:51;95.00;;;46.40;;
23586;SDS011;11971;51.148;4.104;2022-12-15T14:18:22;87.75;;;44.83;;
23586;SDS011;11971;51.148;4.104;2022-12-15T14:20:51;93.88;;;46.60;;
23586;SDS011;11971;51.148;4.104;2022-12-15T14:23:18;95.95;;;47.15;;
23586;SDS011;11971;51.148;4.104;2022-12-15T14:25:51;91.82;;;46.08;;
23586;SDS011;11971;51.148;4.104;2022-12-15T14:28:25;92.60;;;46.10;;
23586;SDS011;11971;51.148;4.104;2022-12-15T14:30:55;86.03;;;44.97;;
23586;SDS011;11971;51.148;4.104;2022-12-15T14:33:25;92.50;;;47.53;;
23586;SDS011;11971;51.148;4.104;2022-12-15T14:35:53;98.90;;;46.83;;
23586;SDS011;11971;51.148;4.104;2022-12-15T14:38:21;92.95;;;46.88;;
23586;SDS011;11971;51.148;4.104;2022-12-15T14:40:50;89.43;;;46.60;;
23586;SDS011;11971;51.148;4.104;2022-12-15T14:43:18;95.00;;;46.43;;
23586;SDS011;11971;51.148;4.104;2022-12-15T14:45:46;102.72;;;51.42;;
23586;SDS011;11971;51.148;4.104;2022-12-15T14:50:46;97.43;;;48.35;;
23586;SDS011;11971;51.148;4.104;2022-12-15T14:53:14;96.90;;;48.15;;
23586;SDS011;11971;51.148;4.104;2022-12-15T14:55:42;92.20;;;48.17;;
23586;SDS011;11971;51.148;4.104;2022-12-15T14:58:21;103.47;;;50.55;;
23586;SDS011;11971;51.148;4.104;2022-12-15T15:00:51;100.38;;;51.03;;
23586;SDS011;11971;51.148;4.104;2022-12-15T15:03:22;96.13;;;49.50;;
23586;SDS011;11971;51.148;4.104;2022-12-15T15:05:54;98.15;;;47.67;;
23586;SDS011;11971;51.148;4.104;2022-12-15T15:08:25;95.72;;;47.40;;
23586;SDS011;11971;51.148;4.104;2022-12-15T15:10:53;97.07;;;48.13;;
23586;SDS011;11971;51.148;4.104;2022-12-15T15:13:22;100.70;;;49.80;;
23586;SDS011;11971;51.148;4.104;2022-12-15T15:15:51;91.97;;;47.78;;
23586;SDS011;11971;51.148;4.104;2022-12-15T15:18:20;92.43;;;48.05;;
23586;SDS011;11971;51.148;4.104;2022-12-15T15:20:49;100.35;;;48.65;;
23586;SDS011;11971;51.148;4.104;2022-12-15T15:23:22;101.30;;;49.42;;
23586;SDS011;11971;51.148;4.104;2022-12-15T15:25:49;104.60;;;49.17;;
23586;SDS011;11971;51.148;4.104;2022-12-15T15:28:19;93.72;;;48.08;;